Time;durP1;ratioP1;P1;durP2;ratioP2;P2;SDS_P1;SDS_P2;PMS_P1;PMS_P2;Temp;Humidity;BMP_temperature;BMP_pressure;BME280_temperature;BME280_humidity;BME280_pressure;Samples;Min_cycle;Max_cycle;Signal;HPM_P1;HPM_P2
2022/01/03 00:01:44;;;;;;;5.43;4.93;;;;;;;;;;5090659;28;20482;-57
2022/01/03 00:04:10;;;;;;;5.63;5.17;;;;;;;;;;5074784;28;20510;-56
2022/01/03 00:06:38;;;;;;;6.40;5.33;;;;;;;;;;5074761;28;20915;-58
2022/01/03 00:09:04;;;;;;;8.80;5.23;;;;;;;;;;5074751;28;20417;-53
2022/01/03 00:11:30;;;;;;;7.00;5.30;;;;;;;;;;5074760;28;20410;-57
2022/01/03 00:13:56;;;;;;;6.23;5.03;;;;;;;;;;5074717;28;20458;-54
2022/01/03 00:16:24;;;;;;;4.87;4.53;;;;;;;;;;5074555;28;20562;-55
2022/01/03 00:18:51;;;;;;;9.93;5.70;;;;;;;;;;5074867;28;20403;-53
2022/01/03 00:21:18;;;;;;;8.30;5.47;;;;;;;;;;5074454;28;20470;-52
2022/01/03 00:23:49;;;;;;;6.30;5.60;;;;;;;;;;5074386;28;20413;-57
2022/01/03 00:26:19;;;;;;;5.43;4.93;;;;;;;;;;5074707;28;20911;-55
2022/01/03 00:28:50;;;;;;;4.23;4.03;;;;;;;;;;5074508;28;20395;-55
2022/01/03 00:31:18;;;;;;;7.03;4.53;;;;;;;;;;5074354;28;20414;-55
2022/01/03 00:33:46;;;;;;;4.33;4.00;;;;;;;;;;5074131;28;20911;-56
2022/01/03 00:36:12;;;;;;;4.10;3.87;;;;;;;;;;5089671;28;20434;-55
2022/01/03 00:38:38;;;;;;;4.30;4.10;;;;;;;;;;5074054;28;20509;-56
2022/01/03 00:41:04;;;;;;;3.87;3.77;;;;;;;;;;5073965;28;20514;-55
2022/01/03 00:43:31;;;;;;;4.57;4.20;;;;;;;;;;5073962;28;20417;-57
2022/01/03 00:45:58;;;;;;;3.80;3.50;;;;;;;;;;5074201;28;20501;-56
2022/01/03 00:48:24;;;;;;;4.03;3.80;;;;;;;;;;5073762;28;20439;-55
2022/01/03 00:50:50;;;;;;;3.17;3.03;;;;;;;;;;5073970;28;20498;-56
2022/01/03 00:53:17;;;;;;;3.20;2.83;;;;;;;;;;5074289;28;20506;-53
2022/01/03 00:55:55;;;;;;;4.00;3.80;;;;;;;;;;5073552;28;20891;-53
2022/01/03 00:58:22;;;;;;;3.23;3.13;;;;;;;;;;5073723;28;20407;-53
2022/01/03 01:00:51;;;;;;;3.30;3.10;;;;;;;;;;5073682;28;20410;-52
2022/01/03 01:03:21;;;;;;;3.10;3.00;;;;;;;;;;5073494;28;20407;-51
2022/01/03 01:05:51;;;;;;;2.97;2.73;;;;;;;;;;5072494;28;20414;-53
2022/01/03 01:08:18;;;;;;;3.60;3.40;;;;;;;;;;5073679;28;20410;-54
2022/01/03 01:10:45;;;;;;;2.67;2.57;;;;;;;;;;5073531;28;20442;-55
2022/01/03 01:13:12;;;;;;;3.00;2.90;;;;;;;;;;5073450;28;20509;-54
2022/01/03 01:15:39;;;;;;;3.40;3.03;;;;;;;;;;5089025;28;21002;-53
2022/01/03 01:18:05;;;;;;;3.00;2.90;;;;;;;;;;5073448;28;20445;-55
2022/01/03 01:20:32;;;;;;;3.03;2.93;;;;;;;;;;5073309;28;20462;-54
2022/01/03 01:22:58;;;;;;;2.70;2.70;;;;;;;;;;5073601;28;20418;-57
2022/01/03 01:27:45;;;;;;;3.07;2.87;;;;;;;;;;5073237;28;20407;-54
2022/01/03 01:28:11;;;;;;;4.67;4.27;;;;;;;;;;5073168;28;20409;-53
2022/01/03 01:30:38;;;;;;;2.87;2.77;;;;;;;;;;5073148;28;20402;-55
2022/01/03 01:33:08;;;;;;;3.70;2.73;;;;;;;;;;5073131;28;20411;-54
2022/01/03 01:35:41;;;;;;;2.83;2.73;;;;;;;;;;5088654;28;21063;-53
2022/01/03 01:38:08;;;;;;;8.53;2.90;;;;;;;;;;5073264;28;20442;-54
2022/01/03 01:40:34;;;;;;;6.53;3.00;;;;;;;;;;5073058;28;20422;-53
2022/01/03 01:43:02;;;;;;;3.13;3.03;;;;;;;;;;5072928;28;20425;-53
2022/01/03 01:45:28;;;;;;;2.90;2.70;;;;;;;;;;5073196;28;20426;-53
2022/01/03 01:47:57;;;;;;;2.60;2.50;;;;;;;;;;5072903;28;20406;-53
2022/01/03 01:50:26;;;;;;;2.60;2.50;;;;;;;;;;5072891;28;20398;-53
2022/01/03 01:52:54;;;;;;;3.10;2.80;;;;;;;;;;5072922;28;20414;-53
2022/01/03 01:55:20;;;;;;;2.87;2.80;;;;;;;;;;5073118;28;20533;-54
2022/01/03 01:57:58;;;;;;;2.87;2.67;;;;;;;;;;5072883;28;20908;-53
2022/01/03 02:00:25;;;;;;;3.47;3.20;;;;;;;;;;5072910;28;20414;-54
2022/01/03 02:03:10;;;;;;;2.80;2.70;;;;;;;;;;5072620;28;20901;-55
2022/01/03 02:05:43;;;;;;;2.80;2.80;;;;;;;;;;5088185;28;20419;-52
2022/01/03 02:08:12;;;;;;;4.63;3.10;;;;;;;;;;5072885;28;20411;-55
2022/01/03 02:10:43;;;;;;;2.80;2.80;;;;;;;;;;5072481;28;20415;-53
2022/01/03 02:13:09;;;;;;;2.77;2.77;;;;;;;;;;5072433;28;20403;-54
2022/01/03 02:15:37;;;;;;;2.50;2.40;;;;;;;;;;5087978;28;20834;-55
2022/01/03 02:18:03;;;;;;;3.10;2.90;;;;;;;;;;5072549;28;20414;-53
2022/01/03 02:20:31;;;;;;;3.30;3.20;;;;;;;;;;5072408;28;20963;-53
2022/01/03 02:22:57;;;;;;;3.10;3.00;;;;;;;;;;5072461;28;20903;-52
2022/01/03 02:25:24;;;;;;;3.33;2.90;;;;;;;;;;5072514;28;20411;-54
2022/01/03 02:27:51;;;;;;;2.80;2.70;;;;;;;;;;5072649;28;20756;-52
2022/01/03 02:30:22;;;;;;;3.20;3.00;;;;;;;;;;5072877;28;20425;-54
2022/01/03 02:32:48;;;;;;;2.70;2.50;;;;;;;;;;5072755;28;20406;-54
2022/01/03 02:35:14;;;;;;;3.23;3.03;;;;;;;;;;5072298;28;20997;-51
2022/01/03 02:37:40;;;;;;;3.13;3.03;;;;;;;;;;5072390;28;20502;-53
2022/01/03 02:40:08;;;;;;;3.80;3.50;;;;;;;;;;5072249;28;20514;-53
2022/01/03 02:42:34;;;;;;;2.70;2.60;;;;;;;;;;5072447;28;20761;-53
2022/01/03 02:45:08;;;;;;;3.03;2.93;;;;;;;;;;5072320;28;20441;-54
2022/01/03 02:47:34;;;;;;;3.00;2.90;;;;;;;;;;5072583;28;20410;-53
2022/01/03 02:50:00;;;;;;;3.10;3.00;;;;;;;;;;5072361;28;20402;-52
2022/01/03 02:52:26;;;;;;;3.10;3.00;;;;;;;;;;5072269;28;20411;-54
2022/01/03 02:54:52;;;;;;;2.93;2.83;;;;;;;;;;5087683;28;20474;-53
2022/01/03 02:57:24;;;;;;;3.13;2.97;;;;;;;;;;5072604;28;20410;-53
2022/01/03 02:59:54;;;;;;;3.87;2.77;;;;;;;;;;5072308;28;20425;-53
2022/01/03 03:02:21;;;;;;;2.90;2.80;;;;;;;;;;5072143;28;20415;-52
2022/01/03 03:04:52;;;;;;;2.80;2.70;;;;;;;;;;5072337;28;20402;-53
2022/01/03 03:07:19;;;;;;;3.10;3.00;;;;;;;;;;5072243;28;20418;-52
2022/01/03 03:09:45;;;;;;;3.13;2.93;;;;;;;;;;5071963;28;20407;-53
2022/01/03 03:12:11;;;;;;;3.50;3.20;;;;;;;;;;5072428;28;20418;-54
2022/01/03 03:14:38;;;;;;;3.43;3.23;;;;;;;;;;5072004;28;20451;-53
2022/01/03 03:17:04;;;;;;;3.40;3.20;;;;;;;;;;5071975;28;20509;-53
2022/01/03 03:19:30;;;;;;;3.53;3.30;;;;;;;;;;5071780;28;20402;-53
2022/01/03 03:21:56;;;;;;;3.30;3.10;;;;;;;;;;5071880;28;20421;-53
2022/01/03 03:24:22;;;;;;;3.20;3.10;;;;;;;;;;5087881;28;20410;-53
2022/01/03 03:26:49;;;;;;;3.40;3.20;;;;;;;;;;5075791;28;20919;-59
2022/01/03 03:29:15;;;;;;;3.20;3.00;;;;;;;;;;5075552;28;20406;-57
2022/01/03 03:31:42;;;;;;;3.50;3.30;;;;;;;;;;5075409;28;20407;-53
2022/01/03 03:34:08;;;;;;;4.10;3.27;;;;;;;;;;5075558;28;20503;-56
2022/01/03 03:36:34;;;;;;;3.73;3.30;;;;;;;;;;5075439;28;20418;-53
2022/01/03 03:39:00;;;;;;;3.40;3.20;;;;;;;;;;5075397;28;20443;-53
2022/01/03 03:41:26;;;;;;;3.43;3.33;;;;;;;;;;5075267;28;20852;-55
2022/01/03 03:43:53;;;;;;;3.53;3.23;;;;;;;;;;5090940;28;20411;-53
2022/01/03 03:46:18;;;;;;;3.40;3.30;;;;;;;;;;5090873;28;20413;-57
2022/01/03 03:48:45;;;;;;;3.30;3.20;;;;;;;;;;5075074;28;20763;-55
2022/01/03 03:51:11;;;;;;;3.60;3.40;;;;;;;;;;5075183;28;20411;-55
2022/01/03 03:53:37;;;;;;;3.27;3.13;;;;;;;;;;5075171;28;20436;-54
2022/01/03 03:56:03;;;;;;;3.10;3.00;;;;;;;;;;5074871;28;20966;-57
2022/01/03 03:58:29;;;;;;;2.90;2.80;;;;;;;;;;5074892;28;20759;-55
2022/01/03 04:00:55;;;;;;;4.00;3.70;;;;;;;;;;5074781;28;20411;-54
2022/01/03 04:03:21;;;;;;;3.50;3.30;;;;;;;;;;5074941;28;20403;-52
2022/01/03 04:05:47;;;;;;;4.03;3.47;;;;;;;;;;5075157;28;20410;-52
2022/01/03 04:08:13;;;;;;;3.63;3.30;;;;;;;;;;5074983;28;20608;-52
2022/01/03 04:10:39;;;;;;;3.20;3.10;;;;;;;;;;5074848;28;20419;-53
2022/01/03 04:13:05;;;;;;;3.93;3.20;;;;;;;;;;5074732;28;20406;-52
2022/01/03 04:15:31;;;;;;;3.63;3.43;;;;;;;;;;5074720;28;20474;-53
2022/01/03 04:17:57;;;;;;;2.80;2.80;;;;;;;;;;5074702;28;20403;-56
2022/01/03 04:20:24;;;;;;;3.40;3.20;;;;;;;;;;5074396;28;20465;-54
2022/01/03 04:22:50;;;;;;;3.27;3.10;;;;;;;;;;5074975;28;20414;-54
2022/01/03 04:25:16;;;;;;;3.20;3.10;;;;;;;;;;5074452;28;20414;-57
2022/01/03 04:27:42;;;;;;;4.00;3.33;;;;;;;;;;5089886;28;20429;-53
2022/01/03 04:30:08;;;;;;;4.80;4.00;;;;;;;;;;5074274;28;20420;-53
2022/01/03 04:32:34;;;;;;;3.60;3.30;;;;;;;;;;5074283;28;20411;-52
2022/01/03 04:35:00;;;;;;;3.87;3.70;;;;;;;;;;5074189;28;20577;-52
2022/01/03 04:37:26;;;;;;;4.20;3.80;;;;;;;;;;5072956;28;20926;-54
2022/01/03 04:39:52;;;;;;;3.37;3.27;;;;;;;;;;5074277;28;20418;-55
2022/01/03 04:42:18;;;;;;;3.87;3.67;;;;;;;;;;5089890;28;20758;-54
2022/01/03 04:44:44;;;;;;;4.13;3.73;;;;;;;;;;5073991;28;20421;-53
2022/01/03 04:47:10;;;;;;;5.40;4.90;;;;;;;;;;5073926;28;20542;-53
2022/01/03 04:49:36;;;;;;;4.23;3.90;;;;;;;;;;5073949;28;20411;-52
2022/01/03 04:52:03;;;;;;;4.77;4.37;;;;;;;;;;5073928;28;20403;-54
2022/01/03 04:54:29;;;;;;;4.60;4.30;;;;;;;;;;5073757;28;20451;-51
2022/01/03 04:56:59;;;;;;;7.97;3.97;;;;;;;;;;5073814;28;20767;-53
2022/01/03 04:59:25;;;;;;;4.90;4.50;;;;;;;;;;5074083;28;20403;-52
2022/01/03 05:01:51;;;;;;;4.37;3.90;;;;;;;;;;5073633;28;20407;-52
2022/01/03 05:04:17;;;;;;;4.87;4.47;;;;;;;;;;5073776;28;20490;-53
2022/01/03 05:06:42;;;;;;;4.33;4.03;;;;;;;;;;5088967;28;20842;-52
2022/01/03 05:09:08;;;;;;;5.73;4.40;;;;;;;;;;5073559;28;20493;-53
2022/01/03 05:11:34;;;;;;;32.97;4.60;;;;;;;;;;5073449;28;20972;-53
2022/01/03 05:14:00;;;;;;;4.20;4.00;;;;;;;;;;5073302;28;20406;-53
2022/01/03 05:16:26;;;;;;;4.23;3.90;;;;;;;;;;5073474;28;20951;-53
2022/01/03 05:18:52;;;;;;;4.53;4.23;;;;;;;;;;5073280;28;20464;-53
2022/01/03 05:21:20;;;;;;;6.77;4.23;;;;;;;;;;5073326;28;20455;-52
2022/01/03 05:23:47;;;;;;;4.23;3.87;;;;;;;;;;5088936;28;20439;-53
2022/01/03 05:26:14;;;;;;;4.20;3.90;;;;;;;;;;5088702;28;20415;-53
2022/01/03 05:28:40;;;;;;;4.30;4.00;;;;;;;;;;5072916;28;20915;-53
2022/01/03 05:31:08;;;;;;;5.57;4.00;;;;;;;;;;5073331;28;20877;-52
2022/01/03 05:33:34;;;;;;;4.20;3.80;;;;;;;;;;5072971;28;20422;-52
2022/01/03 05:36:00;;;;;;;5.90;3.93;;;;;;;;;;5088488;28;20482;-53
2022/01/03 05:38:26;;;;;;;5.07;4.40;;;;;;;;;;5088477;28;20459;-54
2022/01/03 05:40:52;;;;;;;5.23;4.00;;;;;;;;;;5072839;28;20415;-52
2022/01/03 05:43:18;;;;;;;4.20;3.63;;;;;;;;;;5072849;28;20414;-53
2022/01/03 05:45:44;;;;;;;4.90;4.50;;;;;;;;;;5073103;28;20437;-53
2022/01/03 05:48:10;;;;;;;8.33;4.97;;;;;;;;;;5072435;28;20899;-54
2022/01/03 05:50:36;;;;;;;9.63;5.37;;;;;;;;;;5071533;28;20402;-57
2022/01/03 05:53:02;;;;;;;7.73;4.90;;;;;;;;;;5072774;28;20414;-53
2022/01/03 05:55:28;;;;;;;7.57;5.20;;;;;;;;;;5072654;28;20549;-54
2022/01/03 05:57:54;;;;;;;5.70;5.07;;;;;;;;;;5072980;28;20411;-54
2022/01/03 06:00:23;;;;;;;6.70;4.90;;;;;;;;;;5072696;28;20422;-54
2022/01/03 06:02:54;;;;;;;5.33;4.50;;;;;;;;;;5073115;28;20471;-59
2022/01/03 06:05:32;;;;;;;4.43;4.13;;;;;;;;;;5073096;28;20444;-55
2022/01/03 06:07:59;;;;;;;4.73;4.27;;;;;;;;;;5072933;28;20403;-54
2022/01/03 06:10:25;;;;;;;4.63;3.53;;;;;;;;;;5072512;28;20475;-56
2022/01/03 06:12:51;;;;;;;4.00;3.80;;;;;;;;;;5088287;28;20418;-53
2022/01/03 06:15:21;;;;;;;4.67;4.20;;;;;;;;;;5072585;28;20477;-53
2022/01/03 06:17:47;;;;;;;4.30;4.10;;;;;;;;;;5072744;28;20421;-52
2022/01/03 06:20:13;;;;;;;4.43;4.00;;;;;;;;;;5072043;28;20835;-54
2022/01/03 06:22:40;;;;;;;4.63;4.00;;;;;;;;;;5088124;28;20406;-52
2022/01/03 06:25:07;;;;;;;7.13;4.00;;;;;;;;;;5072432;28;20413;-53
2022/01/03 06:27:33;;;;;;;4.00;3.70;;;;;;;;;;5072326;28;20399;-54
2022/01/03 06:29:59;;;;;;;4.50;4.00;;;;;;;;;;5071833;28;20480;-52
2022/01/03 06:32:25;;;;;;;7.03;3.60;;;;;;;;;;5072057;28;20494;-55
2022/01/03 06:34:53;;;;;;;5.33;4.00;;;;;;;;;;5087697;28;20489;-53
2022/01/03 06:37:19;;;;;;;8.00;4.07;;;;;;;;;;5072435;28;20821;-53
2022/01/03 06:39:45;;;;;;;6.33;3.80;;;;;;;;;;5072231;28;20807;-53
2022/01/03 06:42:11;;;;;;;5.50;3.93;;;;;;;;;;5072141;28;20984;-56
2022/01/03 06:44:37;;;;;;;6.80;4.47;;;;;;;;;;5072134;28;20441;-53
2022/01/03 06:47:03;;;;;;;5.67;3.77;;;;;;;;;;5071999;28;20410;-54
2022/01/03 06:49:29;;;;;;;4.10;3.57;;;;;;;;;;5072153;28;20417;-53
2022/01/03 06:51:55;;;;;;;5.53;3.90;;;;;;;;;;5072136;28;20887;-54
2022/01/03 06:54:21;;;;;;;4.77;3.53;;;;;;;;;;5087373;28;20826;-53
2022/01/03 06:56:47;;;;;;;3.93;3.63;;;;;;;;;;5072514;28;20452;-53
2022/01/03 06:59:13;;;;;;;4.20;3.90;;;;;;;;;;5072034;28;20426;-54
2022/01/03 07:01:39;;;;;;;4.90;3.33;;;;;;;;;;5075692;28;20493;-53
2022/01/03 07:04:05;;;;;;;6.03;4.00;;;;;;;;;;5075761;28;20959;-53
2022/01/03 07:06:32;;;;;;;6.23;4.00;;;;;;;;;;5075641;28;20402;-52
2022/01/03 07:08:58;;;;;;;9.03;3.80;;;;;;;;;;5091184;28;20418;-56
2022/01/03 07:11:24;;;;;;;5.03;3.90;;;;;;;;;;5075557;28;20445;-56
2022/01/03 07:13:54;;;;;;;7.37;4.00;;;;;;;;;;5075527;28;20414;-54
2022/01/03 07:19:07;;;;;;;5.40;4.10;;;;;;;;;;5075607;28;20472;-55
2022/01/03 07:21:34;;;;;;;3.40;3.20;;;;;;;;;;5091120;28;20516;-53
2022/01/03 07:24:00;;;;;;;5.87;4.13;;;;;;;;;;5075491;28;20818;-56
2022/01/03 07:26:26;;;;;;;9.50;4.37;;;;;;;;;;5075522;28;20911;-55
2022/01/03 07:28:53;;;;;;;7.20;4.30;;;;;;;;;;5075683;28;20459;-57
2022/01/03 07:31:19;;;;;;;6.43;4.07;;;;;;;;;;5075605;28;20414;-55
2022/01/03 07:33:47;;;;;;;6.97;4.60;;;;;;;;;;5075507;28;20470;-54
2022/01/03 07:36:13;;;;;;;8.87;3.90;;;;;;;;;;5075504;28;20561;-56
2022/01/03 07:38:39;;;;;;;4.43;3.60;;;;;;;;;;5075577;28;20411;-58
2022/01/03 07:41:06;;;;;;;6.13;3.83;;;;;;;;;;5075086;28;20411;-55
2022/01/03 07:43:32;;;;;;;4.13;3.80;;;;;;;;;;5075105;28;20822;-56
2022/01/03 07:45:58;;;;;;;9.83;4.13;;;;;;;;;;5075252;28;20411;-55
2022/01/03 07:48:24;;;;;;;4.60;3.37;;;;;;;;;;5075326;28;20749;-57
2022/01/03 07:50:50;;;;;;;4.60;3.67;;;;;;;;;;5075202;28;20873;-55
2022/01/03 07:53:16;;;;;;;7.00;4.00;;;;;;;;;;5075130;28;20497;-58
2022/01/03 07:55:42;;;;;;;6.83;4.47;;;;;;;;;;5074944;28;20542;-57
2022/01/03 07:58:08;;;;;;;7.43;4.23;;;;;;;;;;5074859;28;20944;-59
2022/01/03 08:00:34;;;;;;;5.60;4.00;;;;;;;;;;5074667;28;20415;-53
2022/01/03 08:03:00;;;;;;;4.20;3.80;;;;;;;;;;5074771;28;20485;-54
2022/01/03 08:05:26;;;;;;;4.70;3.50;;;;;;;;;;5073520;28;20922;-57
2022/01/03 08:07:52;;;;;;;20.93;4.00;;;;;;;;;;5074701;28;20899;-53
2022/01/03 08:10:20;;;;;;;6.30;4.20;;;;;;;;;;5074553;28;20406;-54
2022/01/03 08:12:46;;;;;;;3.70;3.40;;;;;;;;;;5074698;28;20411;-53
2022/01/03 08:15:12;;;;;;;4.53;4.00;;;;;;;;;;5074644;28;20832;-52
2022/01/03 08:17:38;;;;;;;7.83;4.13;;;;;;;;;;5074606;28;20431;-51
2022/01/03 08:20:05;;;;;;;6.87;4.03;;;;;;;;;;5090185;28;20477;-51
2022/01/03 08:22:31;;;;;;;6.50;4.10;;;;;;;;;;5074774;28;20453;-53
2022/01/03 08:24:57;;;;;;;7.10;4.10;;;;;;;;;;5074521;28;20415;-53
2022/01/03 08:27:23;;;;;;;4.87;4.30;;;;;;;;;;5074587;28;20419;-54
2022/01/03 08:29:49;;;;;;;4.83;3.37;;;;;;;;;;5074535;28;20411;-51
2022/01/03 08:32:15;;;;;;;4.20;3.80;;;;;;;;;;5074309;28;20422;-51
2022/01/03 08:34:41;;;;;;;7.77;3.80;;;;;;;;;;5089662;28;20497;-54
2022/01/03 08:37:07;;;;;;;8.80;4.70;;;;;;;;;;5089721;28;20414;-53
2022/01/03 08:39:33;;;;;;;9.40;4.40;;;;;;;;;;5074076;28;20425;-54
2022/01/03 08:41:59;;;;;;;6.40;3.50;;;;;;;;;;5074280;28;20812;-51
2022/01/03 08:44:25;;;;;;;5.87;4.10;;;;;;;;;;5073907;28;20510;-52
2022/01/03 08:46:51;;;;;;;4.00;3.70;;;;;;;;;;5073972;28;20544;-53
2022/01/03 08:49:17;;;;;;;6.33;4.13;;;;;;;;;;5073935;28;20563;-54
2022/01/03 08:51:44;;;;;;;6.27;3.63;;;;;;;;;;5074079;28;20869;-65
2022/01/03 08:54:10;;;;;;;9.53;4.60;;;;;;;;;;5072281;28;20442;-60
2022/01/03 08:56:36;;;;;;;7.70;4.10;;;;;;;;;;5071160;28;20468;-60
2022/01/03 08:59:03;;;;;;;4.93;4.33;;;;;;;;;;5071715;28;20950;-64
2022/01/03 09:01:29;;;;;;;10.03;4.30;;;;;;;;;;5071667;28;20427;-64
2022/01/03 09:03:55;;;;;;;5.97;4.00;;;;;;;;;;5071684;28;20406;-61
2022/01/03 09:06:21;;;;;;;4.37;3.97;;;;;;;;;;5071572;28;20403;-61
2022/01/03 09:08:47;;;;;;;7.90;4.50;;;;;;;;;;5071664;28;20886;-64
2022/01/03 09:11:13;;;;;;;6.43;4.13;;;;;;;;;;5072306;28;20406;-61
2022/01/03 09:13:39;;;;;;;7.43;4.50;;;;;;;;;;5070633;28;20963;-65
2022/01/03 09:16:07;;;;;;;8.27;4.83;;;;;;;;;;5069709;28;20557;-62
2022/01/03 09:18:33;;;;;;;9.40;4.60;;;;;;;;;;5067996;28;20418;-62
2022/01/03 09:21:00;;;;;;;5.47;4.10;;;;;;;;;;5070428;28;20462;-55
2022/01/03 09:23:30;;;;;;;5.33;4.27;;;;;;;;;;5069574;28;20502;-57
2022/01/03 09:28:52;;;;;;;6.57;4.17;;;;;;;;;;5070423;28;20425;-64
2022/01/03 09:31:20;;;;;;;7.07;4.13;;;;;;;;;;5071545;28;20413;-62
2022/01/03 09:33:46;;;;;;;8.50;4.20;;;;;;;;;;5071040;28;20411;-59
2022/01/03 09:36:12;;;;;;;6.50;4.30;;;;;;;;;;5070363;28;20463;-59
2022/01/03 09:38:38;;;;;;;5.33;3.90;;;;;;;;;;5071033;28;20437;-60
2022/01/03 09:41:05;;;;;;;6.03;4.40;;;;;;;;;;5070938;28;20413;-64
2022/01/03 09:43:34;;;;;;;9.27;4.30;;;;;;;;;;5068955;28;20426;-62
2022/01/03 09:46:02;;;;;;;5.97;3.80;;;;;;;;;;5073601;28;20403;-62
2022/01/03 09:48:28;;;;;;;10.20;4.80;;;;;;;;;;5070502;28;20920;-63
2022/01/03 09:50:57;;;;;;;7.50;4.97;;;;;;;;;;5070033;28;21201;-63
2022/01/03 09:53:24;;;;;;;8.90;4.17;;;;;;;;;;5069224;28;20415;-62
2022/01/03 09:55:50;;;;;;;5.93;4.17;;;;;;;;;;5069154;28;20574;-58
2022/01/03 09:58:17;;;;;;;4.70;4.30;;;;;;;;;;5069517;28;20459;-58
2022/01/03 10:00:43;;;;;;;6.90;4.50;;;;;;;;;;5068067;28;20421;-63
2022/01/03 10:03:09;;;;;;;4.83;4.43;;;;;;;;;;5070567;28;20407;-56
2022/01/03 10:05:36;;;;;;;5.50;3.83;;;;;;;;;;5069211;28;20418;-58
2022/01/03 10:08:02;;;;;;;8.00;4.13;;;;;;;;;;5069241;28;20403;-54
2022/01/03 10:10:28;;;;;;;11.53;4.67;;;;;;;;;;5069467;28;20418;-56
2022/01/03 10:12:54;;;;;;;7.13;5.00;;;;;;;;;;5069283;28;20430;-59
2022/01/03 10:15:20;;;;;;;6.10;3.47;;;;;;;;;;5069127;28;20466;-57
2022/01/03 10:17:47;;;;;;;5.30;3.60;;;;;;;;;;5069362;28;20492;-55
2022/01/03 10:20:14;;;;;;;4.27;3.83;;;;;;;;;;5067716;28;21057;-58
2022/01/03 10:22:41;;;;;;;9.47;3.97;;;;;;;;;;5068573;28;20446;-55
2022/01/03 10:25:28;;;;;;;6.33;3.90;;;;;;;;;;5068852;28;20946;-53
2022/01/03 10:27:55;;;;;;;12.43;4.00;;;;;;;;;;5069273;28;20387;-55
2022/01/03 10:30:36;;;;;;;6.33;3.80;;;;;;;;;;5068833;28;21131;-61
2022/01/03 10:33:03;;;;;;;4.37;3.30;;;;;;;;;;5069233;28;20415;-57
2022/01/03 10:35:35;;;;;;;10.47;3.90;;;;;;;;;;5072945;28;20470;-57
2022/01/03 10:38:01;;;;;;;4.70;3.70;;;;;;;;;;5073273;28;20398;-55
2022/01/03 10:40:29;;;;;;;6.23;3.93;;;;;;;;;;5071448;28;20792;-62
2022/01/03 10:42:59;;;;;;;9.30;3.70;;;;;;;;;;5072934;28;20429;-55
2022/01/03 10:45:29;;;;;;;3.47;3.17;;;;;;;;;;5073075;28;20446;-54
2022/01/03 10:47:55;;;;;;;3.87;3.57;;;;;;;;;;5073002;28;21053;-55
2022/01/03 10:50:22;;;;;;;6.60;4.40;;;;;;;;;;5072928;28;20504;-55
2022/01/03 10:52:49;;;;;;;8.90;3.67;;;;;;;;;;5071622;28;20945;-54
2022/01/03 10:55:15;;;;;;;11.10;4.10;;;;;;;;;;5071450;28;20528;-56
2022/01/03 10:57:57;;;;;;;7.97;3.77;;;;;;;;;;5072841;28;20517;-56
2022/01/03 11:00:29;;;;;;;5.43;3.80;;;;;;;;;;5072734;28;20958;-56
2022/01/03 11:05:46;;;;;;;5.00;3.90;;;;;;;;;;5072746;28;20435;-57
2022/01/03 11:10:57;;;;;;;6.60;3.80;;;;;;;;;;5072497;28;20393;-59
2022/01/03 11:13:23;;;;;;;7.17;3.20;;;;;;;;;;5072267;28;20411;-56
2022/01/03 11:15:51;;;;;;;5.97;3.40;;;;;;;;;;5072570;28;20861;-55
2022/01/03 11:18:18;;;;;;;8.03;4.00;;;;;;;;;;5072257;28;20407;-57
2022/01/03 11:20:45;;;;;;;5.47;3.60;;;;;;;;;;5072207;28;20454;-56
2022/01/03 11:23:19;;;;;;;3.83;3.53;;;;;;;;;;5071535;28;20409;-57
2022/01/03 11:25:45;;;;;;;4.13;3.70;;;;;;;;;;5072088;28;20407;-54
2022/01/03 11:28:11;;;;;;;3.73;3.47;;;;;;;;;;5072417;28;20491;-55
2022/01/03 11:30:39;;;;;;;5.40;3.87;;;;;;;;;;5072357;28;20430;-55
2022/01/03 11:33:07;;;;;;;4.50;3.50;;;;;;;;;;5072456;28;20399;-55
2022/01/03 11:35:33;;;;;;;6.83;3.60;;;;;;;;;;5072126;28;20509;-57
2022/01/03 11:38:00;;;;;;;11.30;3.70;;;;;;;;;;5076542;28;20406;-56
2022/01/03 11:40:26;;;;;;;4.80;3.53;;;;;;;;;;5071861;28;20900;-57
2022/01/03 11:42:53;;;;;;;5.67;4.27;;;;;;;;;;5070767;28;20472;-59
2022/01/03 11:45:19;;;;;;;6.70;3.93;;;;;;;;;;5071465;28;20934;-56
2022/01/03 11:47:45;;;;;;;4.17;3.70;;;;;;;;;;5071887;28;20403;-57
2022/01/03 11:50:11;;;;;;;5.57;3.30;;;;;;;;;;5071774;28;20468;-57
2022/01/03 11:52:41;;;;;;;5.13;3.50;;;;;;;;;;5071678;28;20457;-56
2022/01/03 11:55:09;;;;;;;5.00;3.20;;;;;;;;;;5071853;28;20615;-55
2022/01/03 11:57:59;;;;;;;6.90;3.07;;;;;;;;;;5071674;28;20437;-58
2022/01/03 12:05:56;;;;;;;7.80;3.80;;;;;;;;;;5071860;28;20816;-56
2022/01/03 12:08:26;;;;;;;3.17;2.97;;;;;;;;;;5071690;28;20415;-56
2022/01/03 12:10:53;;;;;;;4.60;3.57;;;;;;;;;;5071982;28;20524;-58
2022/01/03 12:13:21;;;;;;;5.93;3.60;;;;;;;;;;5071751;28;20467;-56
2022/01/03 12:15:47;;;;;;;4.00;3.17;;;;;;;;;;5071309;28;20454;-56
2022/01/03 12:18:29;;;;;;;4.03;3.20;;;;;;;;;;5071438;28;20403;-56
2022/01/03 12:20:55;;;;;;;3.73;3.50;;;;;;;;;;5071238;28;20462;-55
2022/01/03 12:23:37;;;;;;;3.07;2.87;;;;;;;;;;5071732;28;20407;-57
2022/01/03 12:26:07;;;;;;;3.30;3.10;;;;;;;;;;5071394;28;20456;-56
2022/01/03 12:28:54;;;;;;;2.97;2.83;;;;;;;;;;5070804;28;20419;-56
2022/01/03 12:31:20;;;;;;;7.67;3.43;;;;;;;;;;5070565;28;20411;-56
2022/01/03 12:34:04;;;;;;;3.70;3.30;;;;;;;;;;5071225;28;20418;-56
2022/01/03 12:36:30;;;;;;;3.50;3.30;;;;;;;;;;5071471;28;20418;-55
2022/01/03 12:39:07;;;;;;;6.63;3.97;;;;;;;;;;5070824;28;20475;-55
2022/01/03 12:41:43;;;;;;;5.90;3.17;;;;;;;;;;5071051;28;20513;-57
2022/01/03 12:44:11;;;;;;;7.83;3.40;;;;;;;;;;5070692;28;20398;-60
2022/01/03 12:46:37;;;;;;;3.10;2.90;;;;;;;;;;5070719;28;20418;-58
2022/01/03 12:49:21;;;;;;;3.87;3.50;;;;;;;;;;5070602;28;20411;-59
2022/01/03 12:51:47;;;;;;;4.00;3.27;;;;;;;;;;5071223;28;20395;-58
2022/01/03 12:54:13;;;;;;;3.77;3.30;;;;;;;;;;5070252;28;20436;-55
2022/01/03 12:56:39;;;;;;;3.60;3.30;;;;;;;;;;5069591;28;20415;-54
2022/01/03 12:59:12;;;;;;;6.87;3.53;;;;;;;;;;5069914;28;20476;-56
2022/01/03 13:01:38;;;;;;;6.10;3.40;;;;;;;;;;5069031;28;20530;-52
2022/01/03 13:04:19;;;;;;;4.10;3.70;;;;;;;;;;5070407;28;20441;-51
2022/01/03 13:06:46;;;;;;;3.80;3.50;;;;;;;;;;5070051;28;20406;-55
2022/01/03 13:09:17;;;;;;;6.00;3.30;;;;;;;;;;5068632;28;20976;-53
2022/01/03 13:11:44;;;;;;;3.63;3.40;;;;;;;;;;5069570;28;20418;-54
2022/01/03 13:14:30;;;;;;;3.47;3.17;;;;;;;;;;5068792;28;20544;-52
2022/01/03 13:16:59;;;;;;;6.03;3.90;;;;;;;;;;5070667;28;20407;-58
2022/01/03 13:19:27;;;;;;;5.73;3.10;;;;;;;;;;5070830;28;20445;-54
2022/01/03 13:21:54;;;;;;;3.90;3.57;;;;;;;;;;5068976;28;20415;-58
2022/01/03 13:24:23;;;;;;;7.73;3.43;;;;;;;;;;5070645;28;20832;-53
2022/01/03 13:26:51;;;;;;;5.50;3.10;;;;;;;;;;5070094;28;20410;-59
2022/01/03 13:29:18;;;;;;;6.20;3.57;;;;;;;;;;5069897;28;20544;-53
2022/01/03 13:31:43;;;;;;;3.20;3.00;;;;;;;;;;5069944;28;20444;-54
2022/01/03 13:34:10;;;;;;;5.63;3.77;;;;;;;;;;5068332;28;20989;-52
2022/01/03 13:36:37;;;;;;;3.70;3.40;;;;;;;;;;5070156;28;20415;-56
2022/01/03 13:39:12;;;;;;;5.37;3.47;;;;;;;;;;5069938;28;20418;-56
2022/01/03 13:41:40;;;;;;;4.70;3.43;;;;;;;;;;5051638;28;20774;-53
2022/01/03 13:44:08;;;;;;;4.30;3.10;;;;;;;;;;5068419;28;20534;-57
2022/01/03 13:49:22;;;;;;;4.73;3.67;;;;;;;;;;5069728;28;20397;-57
2022/01/03 13:51:56;;;;;;;4.80;3.60;;;;;;;;;;5068228;28;20950;-57
2022/01/03 13:54:26;;;;;;;3.00;2.90;;;;;;;;;;5062172;28;20429;-55
2022/01/03 13:56:53;;;;;;;3.60;3.30;;;;;;;;;;5068397;28;20432;-57
2022/01/03 13:59:21;;;;;;;3.50;3.30;;;;;;;;;;5052725;28;20403;-57
2022/01/03 14:01:47;;;;;;;6.57;3.77;;;;;;;;;;5053103;28;20499;-57
2022/01/03 14:04:14;;;;;;;7.70;3.57;;;;;;;;;;5051989;28;20451;-57
2022/01/03 14:06:40;;;;;;;4.03;2.80;;;;;;;;;;5052583;28;20784;-55
2022/01/03 14:09:14;;;;;;;3.30;3.10;;;;;;;;;;5057772;28;20464;-54
2022/01/03 14:11:40;;;;;;;3.60;3.30;;;;;;;;;;5060464;28;20455;-52
2022/01/03 14:14:10;;;;;;;5.17;3.20;;;;;;;;;;5056599;28;20427;-54
2022/01/03 14:17:00;;;;;;;5.07;3.57;;;;;;;;;;5051994;28;20423;-53
2022/01/03 14:19:29;;;;;;;3.30;3.07;;;;;;;;;;5052580;28;20828;-52
2022/01/03 14:21:55;;;;;;;3.57;3.00;;;;;;;;;;5067180;28;20435;-53
2022/01/03 14:24:25;;;;;;;3.50;3.20;;;;;;;;;;5052223;28;20457;-58
2022/01/03 14:26:58;;;;;;;5.60;3.47;;;;;;;;;;5052086;28;20426;-52
2022/01/03 14:29:34;;;;;;;5.80;3.40;;;;;;;;;;5053740;28;20435;-52
2022/01/03 14:32:10;;;;;;;7.60;3.60;;;;;;;;;;5071213;28;20418;-52
2022/01/03 14:34:36;;;;;;;4.83;3.50;;;;;;;;;;5072011;28;20454;-51
2022/01/03 14:37:02;;;;;;;8.90;3.70;;;;;;;;;;5072445;28;20410;-54
2022/01/03 14:39:29;;;;;;;4.30;3.70;;;;;;;;;;5071642;28;20740;-52
2022/01/03 14:41:56;;;;;;;6.40;3.67;;;;;;;;;;5071231;28;20394;-52
2022/01/03 14:44:24;;;;;;;4.40;3.20;;;;;;;;;;5071292;28;20794;-52
2022/01/03 14:46:59;;;;;;;7.50;3.50;;;;;;;;;;5071943;28;20422;-52
2022/01/03 14:49:25;;;;;;;3.63;3.33;;;;;;;;;;5070385;28;20463;-51
2022/01/03 14:51:51;;;;;;;7.13;3.40;;;;;;;;;;5069784;28;20493;-57
2022/01/03 14:54:22;;;;;;;5.10;3.53;;;;;;;;;;5071735;28;20441;-52
2022/01/03 14:56:49;;;;;;;8.03;4.63;;;;;;;;;;5070638;28;20426;-53
2022/01/03 14:59:20;;;;;;;3.50;3.20;;;;;;;;;;5070530;28;20871;-52
2022/01/03 15:01:48;;;;;;;6.60;3.90;;;;;;;;;;5071559;28;20760;-54
2022/01/03 15:04:15;;;;;;;7.37;4.10;;;;;;;;;;5071403;28;20869;-55
2022/01/03 15:06:41;;;;;;;9.20;4.40;;;;;;;;;;5071613;28;20406;-53